Time;durP1;ratioP1;P1;durP2;ratioP2;P2;SDS_P1;SDS_P2;PMS_P1;PMS_P2;Temp;Humidity;BMP_temperature;BMP_pressure;BME280_temperature;BME280_humidity;BME280_pressure;Samples;Min_cycle;Max_cycle;Signal;HPM_P1;HPM_P2
2023/12/06 00:01:11;;;;;;;80.80;55.63;;;0.90;99.90;;;;;;4952107;28;20503;-65
2023/12/06 00:03:36;;;;;;;81.13;53.78;;;0.80;99.90;;;;;;4951242;28;20523;-65
2023/12/06 00:06:02;;;;;;;84.43;56.03;;;0.70;99.90;;;;;;4951755;28;20275;-65
2023/12/06 00:08:28;;;;;;;81.22;55.58;;;0.80;99.90;;;;;;4951412;28;20043;-65
2023/12/06 00:10:53;;;;;;;79.53;54.55;;;0.80;99.90;;;;;;4950889;28;20142;-65
2023/12/06 00:13:19;;;;;;;78.68;52.70;;;0.90;99.90;;;;;;4949555;28;20051;-65
2023/12/06 00:15:45;;;;;;;79.50;54.28;;;0.80;99.90;;;;;;4951243;28;20047;-65
2023/12/06 00:18:11;;;;;;;85.63;56.38;;;0.70;99.90;;;;;;4950926;28;20521;-66
2023/12/06 00:20:36;;;;;;;82.55;54.28;;;0.70;99.90;;;;;;4934648;28;20054;-65
2023/12/06 00:23:02;;;;;;;80.55;54.50;;;0.70;99.90;;;;;;4950750;28;20046;-65
2023/12/06 00:25:28;;;;;;;85.53;56.70;;;0.80;99.90;;;;;;4950879;28;20770;-65
2023/12/06 00:27:55;;;;;;;90.43;57.97;;;0.60;99.90;;;;;;4919135;28;20295;-65
2023/12/06 00:30:21;;;;;;;82.03;54.50;;;0.70;99.90;;;;;;4935052;28;20129;-64
2023/12/06 00:32:46;;;;;;;95.88;59.75;;;0.90;99.90;;;;;;4951185;28;20050;-64
2023/12/06 00:35:12;;;;;;;91.15;58.40;;;1.00;99.90;;;;;;4948162;28;20576;-65
2023/12/06 00:37:38;;;;;;;91.43;59.65;;;0.90;99.90;;;;;;4950533;28;20132;-64
2023/12/06 00:40:05;;;;;;;93.35;58.03;;;0.90;99.90;;;;;;4950330;28;20295;-64
2023/12/06 00:42:30;;;;;;;90.45;56.78;;;0.70;99.90;;;;;;4909799;28;20069;-65
2023/12/06 00:44:56;;;;;;;90.05;57.38;;;0.70;99.90;;;;;;4935119;28;20043;-64
2023/12/06 00:47:22;;;;;;;93.60;60.55;;;0.80;99.90;;;;;;4950836;28;20074;-65
2023/12/06 00:49:47;;;;;;;85.97;57.10;;;1.00;99.90;;;;;;4934506;28;20643;-65
2023/12/06 00:52:13;;;;;;;94.43;60.17;;;0.90;99.90;;;;;;4934037;28;20254;-65
2023/12/06 00:54:39;;;;;;;94.55;60.03;;;0.80;99.90;;;;;;4934220;28;20066;-64
2023/12/06 00:57:04;;;;;;;92.78;58.53;;;0.70;99.90;;;;;;4934294;28;20061;-64
2023/12/06 00:59:30;;;;;;;96.93;57.83;;;1.10;99.90;;;;;;4906019;28;20039;-65
2023/12/06 01:01:56;;;;;;;92.50;57.75;;;1.00;99.90;;;;;;4934121;28;20133;-64
2023/12/06 01:04:21;;;;;;;95.68;59.60;;;0.90;99.90;;;;;;4921671;28;20548;-66
2023/12/06 01:06:47;;;;;;;93.05;56.75;;;0.90;99.90;;;;;;4949924;28;20417;-64
2023/12/06 01:09:13;;;;;;;92.05;59.55;;;0.90;99.90;;;;;;4949850;28;20182;-64
2023/12/06 01:11:38;;;;;;;95.32;60.45;;;1.20;99.90;;;;;;4933726;28;20291;-65
2023/12/06 01:14:04;;;;;;;89.35;54.72;;;1.20;99.90;;;;;;4933684;28;20047;-65
2023/12/06 01:16:30;;;;;;;97.68;55.85;;;1.20;99.90;;;;;;4950272;28;20221;-64
2023/12/06 01:18:55;;;;;;;87.20;54.92;;;0.90;99.90;;;;;;4934019;28;20042;-64
2023/12/06 01:21:21;;;;;;;89.30;55.25;;;1.10;99.90;;;;;;4933754;28;20556;-64
2023/12/06 01:23:47;;;;;;;100.28;59.20;;;1.20;99.90;;;;;;4933933;28;20422;-66
2023/12/06 01:26:12;;;;;;;98.50;61.75;;;1.30;99.90;;;;;;4949716;28;20653;-65
2023/12/06 01:28:38;;;;;;;86.10;54.50;;;1.00;99.90;;;;;;4949360;28;20039;-65
2023/12/06 01:31:04;;;;;;;85.20;55.25;;;1.10;99.90;;;;;;4948901;28;20521;-65
2023/12/06 01:33:30;;;;;;;77.97;52.60;;;1.40;99.90;;;;;;4923520;28;20078;-64
2023/12/06 01:35:55;;;;;;;72.07;47.95;;;1.00;99.90;;;;;;4933577;28;20391;-65
2023/12/06 01:38:21;;;;;;;78.45;50.10;;;1.40;99.90;;;;;;4923350;28;20042;-65
2023/12/06 01:40:47;;;;;;;71.40;47.47;;;1.00;99.90;;;;;;4930426;28;20046;-66
2023/12/06 01:43:12;;;;;;;67.70;46.45;;;1.10;99.90;;;;;;4933235;28;20331;-65
2023/12/06 01:45:38;;;;;;;69.15;45.88;;;1.40;99.90;;;;;;4949273;28;20046;-67
2023/12/06 01:48:04;;;;;;;75.13;47.60;;;1.30;99.90;;;;;;4918655;28;20812;-65
2023/12/06 01:50:31;;;;;;;72.45;49.17;;;1.20;99.90;;;;;;4949951;28;20047;-65
2023/12/06 01:52:59;;;;;;;71.13;46.97;;;1.50;99.90;;;;;;4949853;28;20045;-66
2023/12/06 01:55:25;;;;;;;61.28;43.38;;;1.30;99.90;;;;;;4933804;28;20509;-65
2023/12/06 01:57:51;;;;;;;61.53;43.92;;;1.50;99.90;;;;;;4933859;28;20039;-65
2023/12/06 02:00:17;;;;;;;60.97;41.78;;;1.60;99.90;;;;;;4949694;28;20042;-65
2023/12/06 02:02:44;;;;;;;52.92;38.20;;;1.60;99.90;;;;;;4934513;28;20476;-65
2023/12/06 02:05:12;;;;;;;55.28;39.25;;;1.20;99.90;;;;;;4933592;28;20046;-65
2023/12/06 02:07:39;;;;;;;57.08;38.88;;;1.60;99.90;;;;;;4918137;28;20055;-65
2023/12/06 02:10:06;;;;;;;48.72;37.08;;;1.30;99.90;;;;;;4949864;28;20051;-64
2023/12/06 02:12:32;;;;;;;51.30;37.17;;;1.60;99.90;;;;;;4949277;28;20387;-64
2023/12/06 02:14:59;;;;;;;53.10;37.17;;;1.60;99.90;;;;;;4947508;28;20395;-65
2023/12/06 02:17:25;;;;;;;47.63;34.35;;;1.30;99.90;;;;;;4949587;28;20137;-64
2023/12/06 02:19:53;;;;;;;50.88;36.00;;;1.70;99.90;;;;;;4932858;28;20054;-65
2023/12/06 02:22:20;;;;;;;47.63;35.65;;;1.60;99.90;;;;;;4949672;28;20466;-65
2023/12/06 02:24:51;;;;;;;49.33;35.97;;;1.50;99.90;;;;;;4949748;28;20523;-65
2023/12/06 02:27:17;;;;;;;54.70;38.45;;;1.30;99.90;;;;;;4933593;28;20095;-65
2023/12/06 02:29:43;;;;;;;51.97;38.13;;;1.30;99.90;;;;;;4952069;28;20284;-65
2023/12/06 02:32:08;;;;;;;53.03;38.92;;;1.30;99.90;;;;;;4937401;28;20042;-65
2023/12/06 02:34:36;;;;;;;45.90;35.92;;;1.40;99.90;;;;;;4953840;28;20487;-65
2023/12/06 02:37:05;;;;;;;47.35;35.35;;;1.40;99.90;;;;;;4937481;28;20046;-65
2023/12/06 02:39:42;;;;;;;44.72;34.13;;;1.50;99.90;;;;;;4936634;28;21120;-64
2023/12/06 02:42:09;;;;;;;42.67;31.23;;;1.50;99.90;;;;;;4952794;28;20054;-64
2023/12/06 02:44:35;;;;;;;42.55;33.55;;;1.30;99.90;;;;;;4952859;28;20053;-65
2023/12/06 02:47:01;;;;;;;43.13;30.63;;;1.60;99.90;;;;;;4953769;28;20043;-64
2023/12/06 02:49:27;;;;;;;39.42;30.10;;;1.30;99.90;;;;;;4937115;28;20042;-64
2023/12/06 02:51:53;;;;;;;40.72;31.63;;;1.70;99.90;;;;;;4953224;28;21101;-64
2023/12/06 02:54:18;;;;;;;41.97;32.25;;;1.40;99.90;;;;;;4952779;28;20278;-64
2023/12/06 02:56:44;;;;;;;35.28;27.30;;;1.40;99.90;;;;;;4927011;28;20251;-65
2023/12/06 02:59:10;;;;;;;35.35;26.63;;;1.40;99.90;;;;;;4954213;28;20074;-64
2023/12/06 03:01:35;;;;;;;33.03;26.67;;;1.80;99.90;;;;;;4921683;28;20085;-65
2023/12/06 03:04:01;;;;;;;32.22;24.58;;;1.70;99.90;;;;;;4937477;28;20062;-65
2023/12/06 03:06:27;;;;;;;32.03;25.98;;;1.40;99.90;;;;;;4921749;28;20045;-65
2023/12/06 03:08:53;;;;;;;34.97;24.83;;;1.40;99.90;;;;;;4953029;28;20173;-65
2023/12/06 03:11:18;;;;;;;33.30;26.55;;;1.30;99.90;;;;;;4937675;28;20046;-64
2023/12/06 03:13:44;;;;;;;30.33;24.40;;;1.60;99.90;;;;;;4921136;28;20062;-65
2023/12/06 03:16:10;;;;;;;29.77;24.10;;;1.50;99.90;;;;;;4937028;28;21186;-65
2023/12/06 03:18:35;;;;;;;29.90;23.42;;;1.60;99.90;;;;;;4953199;28;20245;-65
2023/12/06 03:21:01;;;;;;;31.52;25.65;;;1.70;99.90;;;;;;4938679;28;20132;-65
2023/12/06 03:23:27;;;;;;;37.47;27.42;;;1.70;99.90;;;;;;4953270;28;20307;-64
2023/12/06 03:25:53;;;;;;;35.40;27.73;;;1.40;99.90;;;;;;4938418;28;20031;-66
2023/12/06 03:28:18;;;;;;;37.08;28.38;;;1.50;99.90;;;;;;4937863;28;20061;-64
2023/12/06 03:30:44;;;;;;;36.72;28.40;;;1.80;99.90;;;;;;4953211;28;20038;-65
2023/12/06 03:33:10;;;;;;;39.88;29.23;;;1.30;99.90;;;;;;4953345;28;20525;-65
2023/12/06 03:35:35;;;;;;;39.35;30.00;;;1.80;99.90;;;;;;4953644;28;20298;-65
2023/12/06 03:38:01;;;;;;;39.80;29.92;;;1.40;99.90;;;;;;4936912;28;20043;-65
2023/12/06 03:40:27;;;;;;;37.42;28.65;;;1.70;99.90;;;;;;4921559;28;20328;-65
2023/12/06 03:42:53;;;;;;;39.95;28.52;;;1.50;99.90;;;;;;4906906;28;20190;-66
2023/12/06 03:45:19;;;;;;;38.33;30.23;;;1.40;99.90;;;;;;4937627;28;20046;-65
2023/12/06 03:47:45;;;;;;;37.85;28.85;;;1.70;99.90;;;;;;4937883;28;20046;-66
2023/12/06 03:50:10;;;;;;;39.63;30.45;;;1.80;99.90;;;;;;4937126;28;20174;-65
2023/12/06 03:52:36;;;;;;;40.25;30.55;;;1.30;99.90;;;;;;4953367;28;20046;-65
2023/12/06 03:55:02;;;;;;;42.50;32.50;;;1.80;99.90;;;;;;4937191;28;20050;-65
2023/12/06 03:57:29;;;;;;;45.80;31.05;;;1.60;99.90;;;;;;4953674;28;20251;-65
2023/12/06 03:59:54;;;;;;;42.72;30.90;;;1.50;99.90;;;;;;4921343;28;20054;-66
2023/12/06 04:02:20;;;;;;;44.67;32.17;;;1.60;99.90;;;;;;4925334;28;20046;-65
2023/12/06 04:04:46;;;;;;;40.38;30.63;;;1.50;99.90;;;;;;4953265;28;20509;-65
2023/12/06 04:07:11;;;;;;;44.67;32.35;;;1.80;99.90;;;;;;4952578;28;20038;-65
2023/12/06 04:09:38;;;;;;;43.78;33.83;;;1.40;99.90;;;;;;4921583;28;20125;-65
2023/12/06 04:12:05;;;;;;;45.22;33.55;;;1.50;99.90;;;;;;4952930;28;20050;-66
2023/12/06 04:14:31;;;;;;;43.47;32.72;;;1.90;99.90;;;;;;4940458;28;20047;-66
2023/12/06 04:16:57;;;;;;;38.47;28.33;;;1.40;99.90;;;;;;4952428;28;20039;-66
2023/12/06 04:19:22;;;;;;;34.55;27.92;;;1.90;99.90;;;;;;4951418;28;20516;-66
2023/12/06 04:21:48;;;;;;;37.08;28.95;;;1.70;99.90;;;;;;4934984;28;20039;-66
2023/12/06 04:24:14;;;;;;;43.45;31.20;;;1.40;99.90;;;;;;4935890;28;20042;-67
2023/12/06 04:26:39;;;;;;;36.03;28.75;;;1.60;99.90;;;;;;4951798;28;20042;-67
2023/12/06 04:29:05;;;;;;;40.58;31.52;;;1.80;99.90;;;;;;4952013;28;20053;-66
2023/12/06 04:31:31;;;;;;;36.40;28.75;;;1.60;99.90;;;;;;4935322;28;20607;-66
2023/12/06 04:33:57;;;;;;;38.65;30.60;;;1.80;99.90;;;;;;4951580;28;20043;-67
2023/12/06 04:36:22;;;;;;;38.00;30.02;;;1.80;99.90;;;;;;4940515;28;20090;-66
2023/12/06 04:38:48;;;;;;;36.85;29.92;;;1.60;99.90;;;;;;4952402;28;20035;-67
2023/12/06 04:41:14;;;;;;;40.17;30.77;;;1.50;99.90;;;;;;4935610;28;20043;-66
2023/12/06 04:43:40;;;;;;;35.33;28.95;;;1.70;99.90;;;;;;4935875;28;20050;-67
2023/12/06 04:46:05;;;;;;;36.78;28.55;;;1.90;99.90;;;;;;4952088;28;20213;-67
2023/12/06 04:48:31;;;;;;;38.78;30.10;;;1.60;99.90;;;;;;4921061;28;20316;-67
2023/12/06 04:50:56;;;;;;;39.83;28.88;;;1.80;99.90;;;;;;4953822;28;20189;-67
2023/12/06 04:53:22;;;;;;;36.88;29.73;;;1.60;99.90;;;;;;4937902;28;20087;-67
2023/12/06 04:55:48;;;;;;;30.83;26.20;;;1.50;99.90;;;;;;4924305;28;20034;-68
2023/12/06 04:58:13;;;;;;;35.25;28.15;;;1.90;99.90;;;;;;4953299;28;20117;-67
2023/12/06 05:00:39;;;;;;;34.42;27.63;;;1.60;99.90;;;;;;4937615;28;20057;-68
2023/12/06 05:03:05;;;;;;;34.78;27.88;;;2.00;99.90;;;;;;4953032;28;20054;-68
2023/12/06 05:05:31;;;;;;;36.65;28.55;;;1.90;99.90;;;;;;4952400;28;20526;-68
2023/12/06 05:07:56;;;;;;;34.15;28.17;;;2.10;99.90;;;;;;4908843;28;20237;-68
2023/12/06 05:10:22;;;;;;;30.63;25.23;;;1.80;99.90;;;;;;4953101;28;20650;-68
2023/12/06 05:12:48;;;;;;;34.10;27.00;;;1.80;99.90;;;;;;4936818;28;20177;-69
2023/12/06 05:15:14;;;;;;;33.83;26.70;;;1.70;99.90;;;;;;4920623;28;20052;-68
2023/12/06 05:17:40;;;;;;;35.22;28.02;;;2.00;99.90;;;;;;4952166;28;20042;-69
2023/12/06 05:20:17;;;;;;;32.40;26.17;;;1.70;99.90;;;;;;4968187;28;20337;-68
2023/12/06 05:22:43;;;;;;;32.72;24.95;;;2.10;99.90;;;;;;4938137;28;20038;-67
2023/12/06 05:25:12;;;;;;;36.47;27.88;;;1.70;99.90;;;;;;4922237;28;20121;-67
2023/12/06 05:27:38;;;;;;;36.42;27.45;;;1.70;99.90;;;;;;4937039;28;20038;-69
2023/12/06 05:30:06;;;;;;;35.53;29.25;;;2.10;99.90;;;;;;4920218;28;20034;-68
2023/12/06 05:32:32;;;;;;;35.55;27.73;;;2.00;99.90;;;;;;4923821;28;20516;-67
2023/12/06 05:34:57;;;;;;;39.30;28.80;;;1.90;99.90;;;;;;4936994;28;20038;-68
2023/12/06 05:37:23;;;;;;;35.72;28.85;;;2.00;99.90;;;;;;4937047;28;20043;-68
2023/12/06 05:39:49;;;;;;;35.30;28.17;;;2.00;99.90;;;;;;4953153;28;20261;-68
2023/12/06 05:42:16;;;;;;;33.85;27.60;;;1.70;99.90;;;;;;4937482;28;20126;-67
2023/12/06 05:44:42;;;;;;;37.25;27.17;;;2.00;99.90;;;;;;4920934;28;20371;-67
2023/12/06 05:47:07;;;;;;;33.05;27.30;;;2.00;99.90;;;;;;4952461;28;20047;-68
2023/12/06 05:49:33;;;;;;;35.75;27.67;;;2.20;99.90;;;;;;4953092;28;20174;-68
2023/12/06 05:51:59;;;;;;;35.85;28.55;;;2.10;99.90;;;;;;4905907;28;20043;-68
2023/12/06 05:54:24;;;;;;;36.75;28.25;;;1.80;99.90;;;;;;4952918;28;20244;-68
2023/12/06 05:56:50;;;;;;;39.50;29.55;;;1.90;99.90;;;;;;4938111;28;20128;-69
2023/12/06 05:59:16;;;;;;;34.90;28.35;;;2.10;99.90;;;;;;4921643;28;20093;-68
2023/12/06 06:01:42;;;;;;;35.88;29.15;;;1.70;99.90;;;;;;4937347;28;20303;-68
2023/12/06 06:04:07;;;;;;;34.40;27.67;;;1.60;99.90;;;;;;4955953;28;20124;-68
2023/12/06 06:06:34;;;;;;;38.17;29.08;;;1.60;99.90;;;;;;4958087;28;20046;-68
2023/12/06 06:09:00;;;;;;;35.45;29.58;;;2.00;99.90;;;;;;4942775;28;20441;-69
2023/12/06 06:11:26;;;;;;;38.85;31.20;;;1.60;99.90;;;;;;4957698;28;20054;-67
2023/12/06 06:13:52;;;;;;;38.70;29.65;;;1.90;99.90;;;;;;4940394;28;20051;-68
2023/12/06 06:16:18;;;;;;;42.30;33.22;;;2.10;99.90;;;;;;4958677;28;20302;-68
2023/12/06 06:18:44;;;;;;;42.13;32.85;;;2.10;99.90;;;;;;4941354;28;20371;-68
2023/12/06 06:21:10;;;;;;;47.60;33.70;;;2.00;99.90;;;;;;4924977;28;20441;-68
2023/12/06 06:23:35;;;;;;;37.30;29.25;;;1.60;99.90;;;;;;4957377;28;20097;-69
2023/12/06 06:26:01;;;;;;;42.90;31.40;;;1.80;99.90;;;;;;4942977;28;20046;-68
2023/12/06 06:28:27;;;;;;;45.30;34.60;;;1.70;99.90;;;;;;4942193;28;20074;-68
2023/12/06 06:30:53;;;;;;;39.63;29.95;;;1.70;99.90;;;;;;4925151;28;20536;-68
2023/12/06 06:33:18;;;;;;;39.45;32.35;;;1.70;99.90;;;;;;4955568;28;20035;-68
2023/12/06 06:35:44;;;;;;;45.97;33.83;;;2.00;99.90;;;;;;4955027;28;20278;-67
2023/12/06 06:38:10;;;;;;;39.90;31.88;;;2.00;99.90;;;;;;4938158;28;20046;-67
2023/12/06 06:40:35;;;;;;;41.25;34.13;;;2.00;99.90;;;;;;4939678;28;20662;-68
2023/12/06 06:43:01;;;;;;;43.00;35.17;;;2.20;99.90;;;;;;4958366;28;20178;-67
2023/12/06 06:45:27;;;;;;;43.22;33.13;;;1.80;99.90;;;;;;4957762;28;20061;-67
2023/12/06 06:47:54;;;;;;;46.22;33.53;;;1.70;99.90;;;;;;4955476;28;20457;-66
2023/12/06 06:50:20;;;;;;;46.78;34.40;;;2.10;99.90;;;;;;4939747;28;20050;-67
2023/12/06 06:52:46;;;;;;;41.35;32.78;;;2.00;99.90;;;;;;4941267;28;20454;-67
2023/12/06 06:55:11;;;;;;;48.30;36.05;;;1.80;99.90;;;;;;4941492;28;20106;-67
2023/12/06 06:57:37;;;;;;;47.58;35.10;;;2.00;99.90;;;;;;4925268;28;20046;-67
2023/12/06 07:00:05;;;;;;;49.78;35.42;;;1.70;99.90;;;;;;4924606;28;20480;-66
2023/12/06 07:02:30;;;;;;;44.70;33.00;;;1.90;99.90;;;;;;4956538;28;20137;-67
2023/12/06 07:04:56;;;;;;;51.47;34.75;;;1.80;99.90;;;;;;4956200;28;20150;-68
2023/12/06 07:07:22;;;;;;;48.63;35.65;;;1.40;99.90;;;;;;4957033;28;20046;-67
2023/12/06 07:09:48;;;;;;;55.80;39.08;;;1.70;99.90;;;;;;4925839;28;20140;-67
2023/12/06 07:12:13;;;;;;;47.97;34.83;;;1.50;99.90;;;;;;4958148;28;20042;-67
2023/12/06 07:14:39;;;;;;;50.88;35.30;;;1.50;99.90;;;;;;4909355;28;20046;-67
2023/12/06 07:17:05;;;;;;;49.35;37.42;;;1.40;99.90;;;;;;4927628;28;20176;-68
2023/12/06 07:19:31;;;;;;;49.05;34.72;;;1.40;99.90;;;;;;4959744;28;20631;-66
2023/12/06 07:21:57;;;;;;;46.80;33.97;;;1.60;99.90;;;;;;4927758;28;20124;-68
2023/12/06 07:24:23;;;;;;;47.70;34.47;;;1.40;99.90;;;;;;4944504;28;20046;-66
2023/12/06 07:26:48;;;;;;;48.40;34.65;;;1.70;99.90;;;;;;4944562;28;20712;-66
2023/12/06 07:29:14;;;;;;;48.65;36.20;;;1.40;99.90;;;;;;4943602;28;20047;-66
2023/12/06 07:31:40;;;;;;;49.47;35.72;;;1.40;99.90;;;;;;4944029;28;20053;-65
2023/12/06 07:34:06;;;;;;;48.70;36.38;;;1.40;99.90;;;;;;4944347;28;20051;-67
2023/12/06 07:36:32;;;;;;;50.05;35.22;;;1.60;99.90;;;;;;4960105;28;20412;-66
2023/12/06 07:38:58;;;;;;;52.60;37.67;;;1.50;99.90;;;;;;4958677;28;20128;-66
2023/12/06 07:41:24;;;;;;;53.63;39.03;;;1.90;99.90;;;;;;4958605;28;20038;-66
2023/12/06 07:43:49;;;;;;;54.25;37.83;;;1.60;99.90;;;;;;4958161;28;20050;-66
2023/12/06 07:46:15;;;;;;;50.38;35.95;;;1.80;99.90;;;;;;4925627;28;20038;-67
2023/12/06 07:48:41;;;;;;;52.08;36.88;;;1.80;99.90;;;;;;4957905;28;20039;-67
2023/12/06 07:51:07;;;;;;;48.45;34.53;;;1.40;99.90;;;;;;4940888;28;20078;-67
2023/12/06 07:53:32;;;;;;;42.65;34.22;;;1.40;99.90;;;;;;4924930;28;20511;-67
2023/12/06 07:55:59;;;;;;;56.28;38.85;;;1.50;99.90;;;;;;4940608;28;20039;-67
2023/12/06 07:58:25;;;;;;;48.72;36.05;;;1.60;99.90;;;;;;4927658;28;20493;-67
2023/12/06 08:00:51;;;;;;;49.17;35.55;;;1.60;99.90;;;;;;4955348;28;20070;-67
2023/12/06 08:03:18;;;;;;;46.33;34.20;;;1.30;99.90;;;;;;4955997;28;20074;-67
2023/12/06 08:05:44;;;;;;;46.55;34.65;;;1.90;99.90;;;;;;4955815;28;20102;-67
2023/12/06 08:08:09;;;;;;;48.85;36.30;;;1.90;99.90;;;;;;4923768;28;20324;-67
2023/12/06 08:10:35;;;;;;;47.08;35.40;;;1.50;99.90;;;;;;4939172;28;20247;-67
2023/12/06 08:13:01;;;;;;;50.28;36.92;;;1.90;99.90;;;;;;4939729;28;20081;-67
2023/12/06 08:15:28;;;;;;;44.88;35.10;;;1.70;99.90;;;;;;4954429;28;20050;-66
2023/12/06 08:17:55;;;;;;;46.50;35.17;;;1.80;99.90;;;;;;4926090;28;20042;-67
2023/12/06 08:20:21;;;;;;;44.35;33.28;;;1.70;99.90;;;;;;4938478;28;20121;-66
2023/12/06 08:22:47;;;;;;;36.05;29.17;;;1.50;99.90;;;;;;4955269;28;20107;-66
2023/12/06 08:25:12;;;;;;;34.42;29.08;;;2.10;99.90;;;;;;4938219;28;20350;-66
2023/12/06 08:27:38;;;;;;;32.67;28.13;;;2.10;99.90;;;;;;4970695;28;20145;-66
2023/12/06 08:30:08;;;;;;;31.95;26.60;;;1.70;99.90;;;;;;4939986;28;20061;-66
2023/12/06 08:32:34;;;;;;;26.25;23.33;;;2.10;99.90;;;;;;4955823;28;20046;-66
2023/12/06 08:35:01;;;;;;;26.05;23.25;;;1.80;99.90;;;;;;4940230;28;20050;-66
2023/12/06 08:37:27;;;;;;;29.10;24.30;;;2.30;99.90;;;;;;4939972;28;20038;-67
2023/12/06 08:39:52;;;;;;;24.83;20.90;;;2.00;99.90;;;;;;4940345;28;20205;-66
2023/12/06 08:42:18;;;;;;;25.88;21.83;;;2.40;99.90;;;;;;4939920;28;20122;-67
2023/12/06 08:44:44;;;;;;;24.77;21.30;;;2.30;99.90;;;;;;4939249;28;20532;-67
2023/12/06 08:47:11;;;;;;;23.92;21.33;;;2.20;99.90;;;;;;4954248;28;20694;-66
2023/12/06 08:49:38;;;;;;;25.80;21.15;;;2.30;99.90;;;;;;4954545;28;20501;-66
2023/12/06 08:52:08;;;;;;;27.70;22.67;;;2.30;99.90;;;;;;4953817;28;20480;-66
2023/12/06 08:54:34;;;;;;;21.00;17.42;;;2.50;99.90;;;;;;4954572;28;20120;-66
2023/12/06 08:57:03;;;;;;;21.02;18.05;;;2.40;99.90;;;;;;4921827;28;20146;-67
2023/12/06 08:59:29;;;;;;;18.75;15.85;;;2.60;99.90;;;;;;4937800;28;20473;-67
2023/12/06 09:01:55;;;;;;;13.05;11.05;;;2.30;99.90;;;;;;4937063;28;20074;-66
2023/12/06 09:04:21;;;;;;;12.57;8.95;;;2.70;99.90;;;;;;4937964;28;20062;-66
2023/12/06 09:06:47;;;;;;;13.57;9.63;;;2.50;99.90;;;;;;4954131;28;20763;-66
2023/12/06 09:09:17;;;;;;;12.38;8.40;;;2.80;99.90;;;;;;4953401;28;20043;-67
2023/12/06 09:11:46;;;;;;;10.75;8.55;;;2.90;99.90;;;;;;4954164;28;20054;-66
2023/12/06 09:14:12;;;;;;;13.60;9.50;;;3.00;99.90;;;;;;4954035;28;20055;-66
2023/12/06 09:16:39;;;;;;;13.05;10.95;;;3.00;99.90;;;;;;4921855;28;20556;-66
2023/12/06 09:19:05;;;;;;;11.68;9.60;;;2.90;99.90;;;;;;4953240;28;20540;-66
2023/12/06 09:21:46;;;;;;;11.80;9.73;;;3.10;99.90;;;;;;4953923;28;20043;-66
2023/12/06 09:24:15;;;;;;;12.63;10.90;;;3.10;99.90;;;;;;4936914;28;20062;-66
2023/12/06 09:26:41;;;;;;;11.65;10.40;;;3.00;99.90;;;;;;4953169;28;20081;-66
2023/12/06 09:29:08;;;;;;;14.65;10.63;;;3.10;99.90;;;;;;4952182;28;20043;-66
2023/12/06 09:31:35;;;;;;;14.20;12.77;;;3.00;99.90;;;;;;4937463;28;20504;-66
2023/12/06 09:34:01;;;;;;;15.48;11.23;;;3.00;99.90;;;;;;4953438;28;20129;-66
2023/12/06 09:36:28;;;;;;;12.75;11.45;;;2.90;99.90;;;;;;4936979;28;20076;-65
2023/12/06 09:38:56;;;;;;;12.65;10.88;;;3.30;99.90;;;;;;4935985;28;20154;-68
2023/12/06 09:41:30;;;;;;;13.07;10.93;;;3.20;99.90;;;;;;4936744;28;20046;-66
2023/12/06 09:43:57;;;;;;;13.30;10.80;;;3.10;99.90;;;;;;4953141;28;20104;-65
2023/12/06 09:46:23;;;;;;;13.43;9.98;;;3.00;99.90;;;;;;4937446;28;20135;-65
2023/12/06 09:48:49;;;;;;;12.02;8.90;;;3.00;99.90;;;;;;4953468;28;20433;-66
2023/12/06 09:51:17;;;;;;;12.07;9.55;;;3.20;99.90;;;;;;4937180;28;20178;-67
2023/12/06 09:53:44;;;;;;;14.20;10.43;;;3.20;99.90;;;;;;4953378;28;20610;-65
2023/12/06 09:56:10;;;;;;;13.68;10.15;;;3.20;99.90;;;;;;4955861;28;20043;-66
2023/12/06 09:58:36;;;;;;;12.73;9.15;;;3.10;99.90;;;;;;4986400;28;20413;-66
2023/12/06 10:01:03;;;;;;;8.95;7.78;;;3.10;99.90;;;;;;4936735;28;20410;-66
2023/12/06 10:03:28;;;;;;;12.75;7.85;;;3.20;99.90;;;;;;4953650;28;20082;-65
2023/12/06 10:05:59;;;;;;;9.73;8.35;;;3.20;99.90;;;;;;4937673;28;20520;-66
2023/12/06 10:08:25;;;;;;;12.10;9.52;;;3.20;99.90;;;;;;4969512;28;20094;-66
2023/12/06 10:11:23;;;;;;;12.95;9.32;;;3.30;99.90;;;;;;4953826;28;20259;-64
2023/12/06 10:13:49;;;;;;;11.65;8.60;;;3.20;99.90;;;;;;4932284;28;20055;-65
2023/12/06 10:16:21;;;;;;;11.45;6.97;;;3.30;99.90;;;;;;4938438;28;20675;-65
2023/12/06 10:18:49;;;;;;;11.63;7.35;;;3.30;99.90;;;;;;4937742;28;20035;-66
2023/12/06 10:21:19;;;;;;;8.32;7.30;;;3.20;99.90;;;;;;4937774;28;20557;-65
2023/12/06 10:23:57;;;;;;;9.13;7.45;;;3.30;99.90;;;;;;4937860;28;20042;-65
2023/12/06 10:26:26;;;;;;;9.85;8.32;;;3.20;99.90;;;;;;4937876;28;20126;-66
2023/12/06 10:28:53;;;;;;;17.05;9.90;;;3.40;99.90;;;;;;4970621;28;20490;-66
2023/12/06 10:31:19;;;;;;;10.88;9.02;;;3.20;99.90;;;;;;4938286;28;20705;-66
2023/12/06 10:33:52;;;;;;;10.25;9.00;;;3.20;99.90;;;;;;4937206;28;20062;-66
2023/12/06 10:36:19;;;;;;;10.18;9.00;;;3.20;99.90;;;;;;4937605;28;20117;-66
2023/12/06 10:38:46;;;;;;;11.80;10.60;;;3.20;99.90;;;;;;4937448;28;20038;-66
2023/12/06 10:41:13;;;;;;;10.80;9.15;;;3.30;99.90;;;;;;4952572;28;20544;-66
2023/12/06 10:43:40;;;;;;;11.20;9.10;;;3.30;99.90;;;;;;4924811;28;20038;-66
2023/12/06 10:46:07;;;;;;;11.98;9.63;;;3.40;99.90;;;;;;4937533;28;20050;-66
2023/12/06 10:48:34;;;;;;;11.90;8.80;;;3.30;99.90;;;;;;4954032;28;20050;-65
2023/12/06 10:51:00;;;;;;;10.65;8.60;;;3.30;99.90;;;;;;4939162;28;20141;-65
2023/12/06 10:53:27;;;;;;;11.27;8.10;;;3.40;99.90;;;;;;4940458;28;20105;-65
2023/12/06 10:55:53;;;;;;;10.80;7.30;;;3.40;99.90;;;;;;4956793;28;20421;-65
2023/12/06 10:58:23;;;;;;;8.45;6.63;;;3.40;99.90;;;;;;4956947;28;20074;-65
2023/12/06 11:00:49;;;;;;;8.57;6.55;;;3.40;99.90;;;;;;4971897;28;20378;-66
2023/12/06 11:03:15;;;;;;;10.43;7.38;;;3.50;99.90;;;;;;4941031;28;20074;-66
2023/12/06 11:05:45;;;;;;;9.55;7.43;;;3.50;99.90;;;;;;4941028;28;20134;-66
2023/12/06 11:08:35;;;;;;;8.43;5.80;;;3.50;99.90;;;;;;4956270;28;20047;-66
2023/12/06 11:11:23;;;;;;;9.68;7.10;;;3.50;99.90;;;;;;4956894;28;20058;-65
2023/12/06 11:14:17;;;;;;;8.90;7.15;;;3.40;99.90;;;;;;4940346;28;20098;-66
2023/12/06 11:16:49;;;;;;;8.10;6.07;;;3.40;99.90;;;;;;4929322;28;20050;-66
2023/12/06 11:19:16;;;;;;;7.88;6.40;;;3.50;99.90;;;;;;4940397;28;20046;-65
2023/12/06 11:21:41;;;;;;;7.60;4.60;;;3.60;99.90;;;;;;4956136;28;20050;-65
2023/12/06 11:24:08;;;;;;;6.85;5.72;;;3.60;99.90;;;;;;4924732;28;20053;-66
2023/12/06 11:26:34;;;;;;;9.13;6.13;;;3.60;99.90;;;;;;4956173;28;20368;-65
2023/12/06 11:29:03;;;;;;;6.40;5.32;;;3.60;99.90;;;;;;4988850;28;20114;-65
2023/12/06 11:31:36;;;;;;;8.15;5.00;;;3.70;99.90;;;;;;4955796;28;20158;-66
2023/12/06 11:34:09;;;;;;;5.22;4.70;;;3.60;99.90;;;;;;4955601;28;20046;-65
2023/12/06 11:36:35;;;;;;;6.53;5.30;;;3.60;99.90;;;;;;4955785;28;20034;-66
2023/12/06 11:39:17;;;;;;;6.05;5.45;;;3.60;99.90;;;;;;4955464;28;20050;-65
2023/12/06 11:41:54;;;;;;;10.18;6.50;;;3.60;99.90;;;;;;4939891;28;20537;-65
2023/12/06 11:44:20;;;;;;;6.20;5.05;;;3.70;99.90;;;;;;4955895;28;20122;-66
2023/12/06 11:46:50;;;;;;;8.95;6.28;;;3.70;99.90;;;;;;4955946;28;20056;-66
2023/12/06 11:49:19;;;;;;;8.35;6.50;;;3.60;99.90;;;;;;4955864;28;20039;-66
2023/12/06 11:51:57;;;;;;;7.07;5.75;;;3.70;99.90;;;;;;4987573;28;20421;-65
2023/12/06 11:54:23;;;;;;;7.00;6.40;;;3.70;99.90;;;;;;4939413;28;21300;-66
2023/12/06 11:56:48;;;;;;;8.18;6.32;;;3.80;99.90;;;;;;4940052;28;20541;-66
2023/12/06 11:59:14;;;;;;;10.80;7.47;;;3.90;99.90;;;;;;4955971;28;20035;-66
2023/12/06 12:01:41;;;;;;;11.60;9.52;;;3.80;99.90;;;;;;4939360;28;20043;-65
2023/12/06 12:04:08;;;;;;;14.77;9.98;;;3.80;99.90;;;;;;4939434;28;20042;-65
2023/12/06 12:06:34;;;;;;;11.98;9.90;;;3.90;99.90;;;;;;4939300;28;20046;-66
2023/12/06 12:09:00;;;;;;;15.70;10.55;;;3.80;99.90;;;;;;4955288;28;20100;-65
2023/12/06 12:11:26;;;;;;;13.05;10.70;;;3.80;99.90;;;;;;4955556;28;20129;-66
2023/12/06 12:13:52;;;;;;;11.90;9.35;;;3.80;99.90;;;;;;4939058;28;20066;-65
2023/12/06 12:16:19;;;;;;;10.60;9.00;;;3.70;99.90;;;;;;4955043;28;20096;-65
2023/12/06 12:18:45;;;;;;;10.93;8.82;;;3.60;99.90;;;;;;4954472;28;20279;-65
2023/12/06 12:21:18;;;;;;;13.30;9.02;;;3.70;99.90;;;;;;4922691;28;20050;-66
2023/12/06 12:23:46;;;;;;;12.00;8.93;;;3.60;99.90;;;;;;4957133;28;20125;-65
2023/12/06 12:26:16;;;;;;;9.85;8.85;;;3.50;99.90;;;;;;4938621;28;20458;-65
2023/12/06 12:28:43;;;;;;;11.70;8.57;;;3.60;99.90;;;;;;4923362;28;20046;-65
2023/12/06 12:31:14;;;;;;;11.32;8.85;;;3.50;99.90;;;;;;4955036;28;20050;-66
2023/12/06 12:33:41;;;;;;;11.90;9.07;;;3.50;99.90;;;;;;4954460;28;20384;-65
2023/12/06 12:36:08;;;;;;;10.70;8.15;;;3.50;99.90;;;;;;4954337;28;20042;-66
2023/12/06 12:38:35;;;;;;;9.80;8.70;;;3.60;99.90;;;;;;4924678;28;20043;-66